sensor_id;sensor_type;location;lat;lon;timestamp;pressure;altitude;pressure_sealevel;temperature;humidity
63700;BME280;49845;47.130;142.766;2023-06-22T00:00:18;100285.69;;;22.01;74.83
63700;BME280;49845;47.130;142.766;2023-06-22T00:02:49;100284.53;;;22.19;73.15
63700;BME280;49845;47.130;142.766;2023-06-22T00:05:20;100293.81;;;22.40;71.80
63700;BME280;49845;47.130;142.766;2023-06-22T00:07:50;100291.31;;;22.52;71.94
63700;BME280;49845;47.130;142.766;2023-06-22T00:10:21;100279.41;;;22.70;70.95
63700;BME280;49845;47.130;142.766;2023-06-22T00:12:53;100271.22;;;22.73;69.81
63700;BME280;49845;47.130;142.766;2023-06-22T00:15:24;100284.66;;;22.99;71.19
63700;BME280;49845;47.130;142.766;2023-06-22T00:17:54;100285.06;;;23.06;70.49
63700;BME280;49845;47.130;142.766;2023-06-22T00:20:25;100283.16;;;23.20;70.25
63700;BME280;49845;47.130;142.766;2023-06-22T00:22:59;100279.34;;;23.24;69.02
63700;BME280;49845;47.130;142.766;2023-06-22T00:25:30;100289.78;;;23.28;68.77
63700;BME280;49845;47.130;142.766;2023-06-22T00:28:02;100268.25;;;23.31;68.19
63700;BME280;49845;47.130;142.766;2023-06-22T00:30:33;100265.88;;;23.13;68.53
63700;BME280;49845;47.130;142.766;2023-06-22T00:33:03;100284.22;;;23.56;68.36
63700;BME280;49845;47.130;142.766;2023-06-22T00:35:35;100279.56;;;23.73;67.72
63700;BME280;49845;47.130;142.766;2023-06-22T00:38:09;100279.31;;;23.88;67.76
63700;BME280;49845;47.130;142.766;2023-06-22T00:40:40;100273.41;;;24.09;65.47
63700;BME280;49845;47.130;142.766;2023-06-22T00:43:12;100273.88;;;23.90;65.26
63700;BME280;49845;47.130;142.766;2023-06-22T00:45:43;100272.50;;;23.84;63.09
63700;BME280;49845;47.130;142.766;2023-06-22T00:48:14;100271.44;;;23.87;64.20
63700;BME280;49845;47.130;142.766;2023-06-22T00:50:45;100268.97;;;24.21;64.78
63700;BME280;49845;47.130;142.766;2023-06-22T00:53:19;100266.97;;;24.36;62.71
63700;BME280;49845;47.130;142.766;2023-06-22T00:55:50;100272.53;;;24.45;62.17
63700;BME280;49845;47.130;142.766;2023-06-22T00:58:22;100273.59;;;24.43;62.27
63700;BME280;49845;47.130;142.766;2023-06-22T01:00:53;100265.19;;;24.60;61.13
63700;BME280;49845;47.130;142.766;2023-06-22T01:03:24;100235.13;;;24.45;58.90
63700;BME280;49845;47.130;142.766;2023-06-22T01:05:59;100267.22;;;24.81;59.74
63700;BME280;49845;47.130;142.766;2023-06-22T01:08:38;100271.78;;;25.03;59.40
63700;BME280;49845;47.130;142.766;2023-06-22T01:11:12;100256.69;;;24.90;55.81
63700;BME280;49845;47.130;142.766;2023-06-22T01:13:53;100257.34;;;24.70;55.16
63700;BME280;49845;47.130;142.766;2023-06-22T01:16:29;100248.09;;;24.63;57.48
63700;BME280;49845;47.130;142.766;2023-06-22T01:19:03;100216.50;;;24.57;56.76
63700;BME280;49845;47.130;142.766;2023-06-22T01:21:39;100239.66;;;24.80;55.64
63700;BME280;49845;47.130;142.766;2023-06-22T01:24:18;100241.38;;;24.81;55.63
63700;BME280;49845;47.130;142.766;2023-06-22T01:26:59;100245.91;;;24.68;59.19
63700;BME280;49845;47.130;142.766;2023-06-22T01:29:36;100242.75;;;24.63;60.90
63700;BME280;49845;47.130;142.766;2023-06-22T01:32:09;100241.50;;;24.56;61.67
63700;BME280;49845;47.130;142.766;2023-06-22T01:34:40;100234.69;;;24.51;60.51
63700;BME280;49845;47.130;142.766;2023-06-22T01:37:13;100241.72;;;24.52;63.50
63700;BME280;49845;47.130;142.766;2023-06-22T01:39:44;100241.09;;;24.25;63.82
63700;BME280;49845;47.130;142.766;2023-06-22T01:42:15;100245.44;;;24.26;65.14
63700;BME280;49845;47.130;142.766;2023-06-22T01:44:48;100237.63;;;24.11;62.80
63700;BME280;49845;47.130;142.766;2023-06-22T01:47:18;100237.69;;;23.86;65.21
63700;BME280;49845;47.130;142.766;2023-06-22T01:49:50;100234.31;;;23.84;66.31
63700;BME280;49845;47.130;142.766;2023-06-22T01:52:21;100194.81;;;23.63;66.16
63700;BME280;49845;47.130;142.766;2023-06-22T01:54:52;100230.38;;;23.77;68.27
63700;BME280;49845;47.130;142.766;2023-06-22T01:57:22;100233.03;;;23.51;67.65
63700;BME280;49845;47.130;142.766;2023-06-22T02:00:00;100233.03;;;23.51;67.02
63700;BME280;49845;47.130;142.766;2023-06-22T02:02:36;100223.66;;;23.33;68.32
63700;BME280;49845;47.130;142.766;2023-06-22T02:05:09;100203.16;;;22.95;68.20
63700;BME280;49845;47.130;142.766;2023-06-22T02:07:45;100239.78;;;22.78;67.23
63700;BME280;49845;47.130;142.766;2023-06-22T02:10:17;100230.09;;;22.65;68.48
63700;BME280;49845;47.130;142.766;2023-06-22T02:12:49;100195.84;;;22.46;67.05
63700;BME280;49845;47.130;142.766;2023-06-22T02:15:22;100240.06;;;22.61;67.64
63700;BME280;49845;47.130;142.766;2023-06-22T02:17:53;100230.41;;;22.73;68.98
63700;BME280;49845;47.130;142.766;2023-06-22T02:20:24;100230.88;;;22.92;67.08
63700;BME280;49845;47.130;142.766;2023-06-22T02:22:55;100243.44;;;22.77;67.20
63700;BME280;49845;47.130;142.766;2023-06-22T02:25:26;100233.81;;;22.62;67.89
63700;BME280;49845;47.130;142.766;2023-06-22T02:27:57;100238.13;;;22.50;68.66
63700;BME280;49845;47.130;142.766;2023-06-22T02:30:29;100241.25;;;22.57;66.95
63700;BME280;49845;47.130;142.766;2023-06-22T02:33:02;100246.38;;;22.60;68.45
63700;BME280;49845;47.130;142.766;2023-06-22T02:35:33;100241.91;;;22.73;66.82
63700;BME280;49845;47.130;142.766;2023-06-22T02:38:04;100204.16;;;22.54;66.26
63700;BME280;49845;47.130;142.766;2023-06-22T02:40:34;100234.41;;;22.53;66.08
63700;BME280;49845;47.130;142.766;2023-06-22T02:43:05;100243.38;;;22.52;65.77
63700;BME280;49845;47.130;142.766;2023-06-22T02:45:37;100237.38;;;22.48;67.19
63700;BME280;49845;47.130;142.766;2023-06-22T02:48:07;100233.94;;;22.33;68.02
63700;BME280;49845;47.130;142.766;2023-06-22T02:50:38;100233.59;;;22.25;67.02
63700;BME280;49845;47.130;142.766;2023-06-22T02:53:09;100227.59;;;22.49;68.97
63700;BME280;49845;47.130;142.766;2023-06-22T02:55:39;100238.91;;;22.52;65.78
63700;BME280;49845;47.130;142.766;2023-06-22T02:58:10;100244.19;;;22.39;65.29
63700;BME280;49845;47.130;142.766;2023-06-22T03:00:42;100239.97;;;22.50;65.78
63700;BME280;49845;47.130;142.766;2023-06-22T03:03:12;100228.00;;;22.43;67.49
63700;BME280;49845;47.130;142.766;2023-06-22T03:05:43;100247.41;;;22.45;67.10
63700;BME280;49845;47.130;142.766;2023-06-22T03:08:14;100241.00;;;22.47;67.74
63700;BME280;49845;47.130;142.766;2023-06-22T03:10:44;100245.63;;;22.58;66.12
63700;BME280;49845;47.130;142.766;2023-06-22T03:13:15;100252.94;;;22.42;65.42
63700;BME280;49845;47.130;142.766;2023-06-22T03:15:47;100242.13;;;22.16;66.96
63700;BME280;49845;47.130;142.766;2023-06-22T03:18:18;100261.50;;;22.18;68.38
63700;BME280;49845;47.130;142.766;2023-06-22T03:20:51;100251.88;;;22.03;66.18
63700;BME280;49845;47.130;142.766;2023-06-22T03:23:22;100254.13;;;22.09;66.23
63700;BME280;49845;47.130;142.766;2023-06-22T03:25:53;100253.06;;;22.26;68.43
63700;BME280;49845;47.130;142.766;2023-06-22T03:28:24;100249.50;;;22.39;66.79
63700;BME280;49845;47.130;142.766;2023-06-22T03:30:57;100251.78;;;22.31;66.48
63700;BME280;49845;47.130;142.766;2023-06-22T03:33:28;100250.69;;;22.21;64.79
63700;BME280;49845;47.130;142.766;2023-06-22T03:35:58;100250.88;;;22.18;67.48
63700;BME280;49845;47.130;142.766;2023-06-22T03:38:29;100236.44;;;22.22;65.82
63700;BME280;49845;47.130;142.766;2023-06-22T03:40:59;100247.78;;;22.38;65.86
63700;BME280;49845;47.130;142.766;2023-06-22T03:43:30;100247.28;;;22.19;65.41
63700;BME280;49845;47.130;142.766;2023-06-22T03:46:02;100251.78;;;22.31;67.67
63700;BME280;49845;47.130;142.766;2023-06-22T03:48:33;100252.56;;;22.33;67.26
63700;BME280;49845;47.130;142.766;2023-06-22T03:51:03;100243.47;;;22.09;65.89
63700;BME280;49845;47.130;142.766;2023-06-22T03:53:34;100249.97;;;22.05;66.10
63700;BME280;49845;47.130;142.766;2023-06-22T03:56:04;100260.97;;;21.98;64.40
63700;BME280;49845;47.130;142.766;2023-06-22T03:58:35;100259.66;;;21.91;65.54
63700;BME280;49845;47.130;142.766;2023-06-22T04:01:13;100261.28;;;21.94;65.57
63700;BME280;49845;47.130;142.766;2023-06-22T04:03:45;100262.53;;;21.74;66.45
63700;BME280;49845;47.130;142.766;2023-06-22T04:06:18;100228.56;;;21.50;66.68
63700;BME280;49845;47.130;142.766;2023-06-22T04:08:49;100217.38;;;21.60;64.22
63700;BME280;49845;47.130;142.766;2023-06-22T04:11:20;100261.41;;;21.64;66.26
63700;BME280;49845;47.130;142.766;2023-06-22T04:13:50;100275.25;;;21.69;67.32
63700;BME280;49845;47.130;142.766;2023-06-22T04:16:23;100257.81;;;21.65;65.69
63700;BME280;49845;47.130;142.766;2023-06-22T04:18:53;100279.66;;;21.56;64.75
63700;BME280;49845;47.130;142.766;2023-06-22T04:21:24;100273.38;;;21.42;66.57
63700;BME280;49845;47.130;142.766;2023-06-22T04:23:55;100285.06;;;21.40;65.66
63700;BME280;49845;47.130;142.766;2023-06-22T04:26:25;100279.75;;;21.40;64.36
63700;BME280;49845;47.130;142.766;2023-06-22T04:28:56;100276.38;;;21.22;65.82
63700;BME280;49845;47.130;142.766;2023-06-22T04:31:28;100273.88;;;21.19;66.16
63700;BME280;49845;47.130;142.766;2023-06-22T04:34:00;100278.28;;;21.20;65.74
63700;BME280;49845;47.130;142.766;2023-06-22T04:36:35;100272.22;;;21.32;66.90
63700;BME280;49845;47.130;142.766;2023-06-22T04:39:07;100279.22;;;21.33;65.66
63700;BME280;49845;47.130;142.766;2023-06-22T04:41:39;100238.38;;;21.05;64.39
63700;BME280;49845;47.130;142.766;2023-06-22T04:44:14;100178.72;;;20.66;66.43
63700;BME280;49845;47.130;142.766;2023-06-22T04:46:55;100274.28;;;21.27;65.44
63700;BME280;49845;47.130;142.766;2023-06-22T04:49:29;100280.72;;;21.23;65.51
63700;BME280;49845;47.130;142.766;2023-06-22T04:52:03;100284.94;;;21.27;64.68
63700;BME280;49845;47.130;142.766;2023-06-22T04:54:36;100289.13;;;21.45;65.90
63700;BME280;49845;47.130;142.766;2023-06-22T04:57:08;100283.81;;;21.45;65.35
63700;BME280;49845;47.130;142.766;2023-06-22T04:59:39;100289.00;;;21.32;64.50
63700;BME280;49845;47.130;142.766;2023-06-22T05:02:11;100287.38;;;21.30;64.99
63700;BME280;49845;47.130;142.766;2023-06-22T05:04:42;100287.13;;;21.35;65.11
63700;BME280;49845;47.130;142.766;2023-06-22T05:07:13;100277.50;;;21.18;65.32
63700;BME280;49845;47.130;142.766;2023-06-22T05:09:43;100291.28;;;21.24;65.63
63700;BME280;49845;47.130;142.766;2023-06-22T05:12:13;100279.97;;;21.21;65.04
63700;BME280;49845;47.130;142.766;2023-06-22T05:14:44;100278.28;;;21.20;66.71
63700;BME280;49845;47.130;142.766;2023-06-22T05:17:16;100272.56;;;21.26;64.68
63700;BME280;49845;47.130;142.766;2023-06-22T05:19:47;100257.56;;;21.10;65.03
63700;BME280;49845;47.130;142.766;2023-06-22T05:22:18;100270.88;;;21.25;64.96
63700;BME280;49845;47.130;142.766;2023-06-22T05:24:48;100288.91;;;21.20;65.86
63700;BME280;49845;47.130;142.766;2023-06-22T05:27:20;100260.91;;;20.84;65.97
63700;BME280;49845;47.130;142.766;2023-06-22T05:29:51;100284.00;;;20.98;65.31
63700;BME280;49845;47.130;142.766;2023-06-22T05:32:23;100289.84;;;20.88;64.72
63700;BME280;49845;47.130;142.766;2023-06-22T05:34:54;100279.53;;;20.98;67.58
63700;BME280;49845;47.130;142.766;2023-06-22T05:37:25;100283.59;;;21.20;65.02
63700;BME280;49845;47.130;142.766;2023-06-22T05:39:55;100289.06;;;21.17;67.20
63700;BME280;49845;47.130;142.766;2023-06-22T05:42:26;100288.47;;;20.97;66.83
63700;BME280;49845;47.130;142.766;2023-06-22T05:44:56;100288.50;;;20.81;65.42
63700;BME280;49845;47.130;142.766;2023-06-22T05:47:29;100281.53;;;20.64;66.54
63700;BME280;49845;47.130;142.766;2023-06-22T05:49:59;100282.53;;;20.78;66.83
63700;BME280;49845;47.130;142.766;2023-06-22T05:52:35;100285.22;;;20.92;67.21
63700;BME280;49845;47.130;142.766;2023-06-22T05:55:06;100285.38;;;20.89;65.42
63700;BME280;49845;47.130;142.766;2023-06-22T05:57:37;100288.63;;;20.94;65.95
63700;BME280;49845;47.130;142.766;2023-06-22T06:00:09;100286.13;;;21.07;65.96
63700;BME280;49845;47.130;142.766;2023-06-22T06:02:42;100288.47;;;21.11;65.78
63700;BME280;49845;47.130;142.766;2023-06-22T06:05:13;100284.63;;;21.17;66.04
63700;BME280;49845;47.130;142.766;2023-06-22T06:07:45;100284.13;;;21.10;66.69
63700;BME280;49845;47.130;142.766;2023-06-22T06:10:16;100274.41;;;20.95;65.83
63700;BME280;49845;47.130;142.766;2023-06-22T06:12:46;100280.69;;;21.08;65.92
63700;BME280;49845;47.130;142.766;2023-06-22T06:15:17;100284.50;;;21.04;66.36
63700;BME280;49845;47.130;142.766;2023-06-22T06:17:50;100270.91;;;20.95;66.96
63700;BME280;49845;47.130;142.766;2023-06-22T06:20:22;100264.31;;;20.86;64.73
63700;BME280;49845;47.130;142.766;2023-06-22T06:22:53;100276.84;;;20.84;65.87
63700;BME280;49845;47.130;142.766;2023-06-22T06:25:24;100273.72;;;20.92;65.51
63700;BME280;49845;47.130;142.766;2023-06-22T06:27:54;100272.47;;;20.83;64.77
63700;BME280;49845;47.130;142.766;2023-06-22T06:30:25;100277.91;;;20.65;65.19
63700;BME280;49845;47.130;142.766;2023-06-22T06:32:58;100273.72;;;20.61;66.75
63700;BME280;49845;47.130;142.766;2023-06-22T06:35:29;100277.41;;;20.75;66.62
63700;BME280;49845;47.130;142.766;2023-06-22T06:37:59;100284.22;;;20.79;66.73
63700;BME280;49845;47.130;142.766;2023-06-22T06:40:30;100277.75;;;20.68;66.41
63700;BME280;49845;47.130;142.766;2023-06-22T06:43:01;100276.75;;;20.55;67.64
63700;BME280;49845;47.130;142.766;2023-06-22T06:45:32;100289.66;;;20.61;68.15
63700;BME280;49845;47.130;142.766;2023-06-22T06:48:05;100289.13;;;20.39;67.41
63700;BME280;49845;47.130;142.766;2023-06-22T06:50:35;100299.50;;;20.43;68.28
63700;BME280;49845;47.130;142.766;2023-06-22T06:53:06;100291.47;;;20.45;67.18
63700;BME280;49845;47.130;142.766;2023-06-22T06:55:36;100279.81;;;20.16;67.00
63700;BME280;49845;47.130;142.766;2023-06-22T06:58:07;100297.78;;;20.26;68.15
63700;BME280;49845;47.130;142.766;2023-06-22T07:00:40;100292.31;;;20.14;66.91
63700;BME280;49845;47.130;142.766;2023-06-22T07:03:13;100273.34;;;19.90;67.62
63700;BME280;49845;47.130;142.766;2023-06-22T07:05:44;100312.69;;;19.97;67.32
63700;BME280;49845;47.130;142.766;2023-06-22T07:08:14;100305.66;;;19.96;68.00
63700;BME280;49845;47.130;142.766;2023-06-22T07:10:45;100302.31;;;19.93;68.02
63700;BME280;49845;47.130;142.766;2023-06-22T07:13:15;100298.13;;;19.89;68.11
63700;BME280;49845;47.130;142.766;2023-06-22T07:15:46;100298.28;;;19.86;68.40
63700;BME280;49845;47.130;142.766;2023-06-22T07:18:18;100298.47;;;19.82;68.59
63700;BME280;49845;47.130;142.766;2023-06-22T07:20:48;100302.22;;;19.78;68.48
63700;BME280;49845;47.130;142.766;2023-06-22T07:23:20;100304.50;;;19.51;68.49
63700;BME280;49845;47.130;142.766;2023-06-22T07:25:50;100300.34;;;19.30;69.04
63700;BME280;49845;47.130;142.766;2023-06-22T07:28:21;100315.91;;;19.18;69.76
63700;BME280;49845;47.130;142.766;2023-06-22T07:30:51;100317.25;;;18.92;70.21
63700;BME280;49845;47.130;142.766;2023-06-22T07:33:23;100320.13;;;18.69;70.63
63700;BME280;49845;47.130;142.766;2023-06-22T07:35:54;100318.28;;;18.71;71.75
63700;BME280;49845;47.130;142.766;2023-06-22T07:38:25;100270.31;;;18.42;71.67
63700;BME280;49845;47.130;142.766;2023-06-22T07:40:55;100320.88;;;18.72;71.90
63700;BME280;49845;47.130;142.766;2023-06-22T07:43:26;100300.69;;;18.70;71.38
63700;BME280;49845;47.130;142.766;2023-06-22T07:45:58;100323.78;;;18.85;71.45
63700;BME280;49845;47.130;142.766;2023-06-22T07:48:30;100327.75;;;18.58;71.43
63700;BME280;49845;47.130;142.766;2023-06-22T07:51:01;100330.78;;;18.50;71.78
63700;BME280;49845;47.130;142.766;2023-06-22T07:53:31;100333.91;;;18.58;71.90
63700;BME280;49845;47.130;142.766;2023-06-22T07:56:02;100331.63;;;18.50;71.75
63700;BME280;49845;47.130;142.766;2023-06-22T07:58:35;100330.28;;;18.42;71.93
63700;BME280;49845;47.130;142.766;2023-06-22T08:01:05;100329.19;;;18.46;72.29
63700;BME280;49845;47.130;142.766;2023-06-22T08:03:39;100329.91;;;18.49;72.34
63700;BME280;49845;47.130;142.766;2023-06-22T08:06:10;100322.91;;;18.48;71.67
63700;BME280;49845;47.130;142.766;2023-06-22T08:08:40;100328.19;;;18.48;72.51
63700;BME280;49845;47.130;142.766;2023-06-22T08:11:11;100335.66;;;18.40;72.20
63700;BME280;49845;47.130;142.766;2023-06-22T08:13:42;100321.91;;;18.32;72.03
63700;BME280;49845;47.130;142.766;2023-06-22T08:16:12;100330.06;;;18.08;72.58
63700;BME280;49845;47.130;142.766;2023-06-22T08:18:44;100335.78;;;17.99;73.10
63700;BME280;49845;47.130;142.766;2023-06-22T08:21:15;100331.78;;;17.91;73.41
63700;BME280;49845;47.130;142.766;2023-06-22T08:23:45;100326.16;;;17.78;73.63
63700;BME280;49845;47.130;142.766;2023-06-22T08:26:16;100329.06;;;17.72;74.44
63700;BME280;49845;47.130;142.766;2023-06-22T08:28:46;100330.56;;;17.58;74.79
63700;BME280;49845;47.130;142.766;2023-06-22T08:31:17;100333.69;;;17.48;75.65
63700;BME280;49845;47.130;142.766;2023-06-22T08:33:49;100337.06;;;17.31;76.20
63700;BME280;49845;47.130;142.766;2023-06-22T08:36:20;100333.88;;;17.22;76.39
63700;BME280;49845;47.130;142.766;2023-06-22T08:38:51;100337.28;;;17.24;76.55
63700;BME280;49845;47.130;142.766;2023-06-22T08:41:22;100340.72;;;17.27;76.95
63700;BME280;49845;47.130;142.766;2023-06-22T08:43:53;100352.22;;;17.46;76.31
63700;BME280;49845;47.130;142.766;2023-06-22T08:46:24;100349.84;;;17.60;75.72
63700;BME280;49845;47.130;142.766;2023-06-22T08:49:00;100354.06;;;17.44;75.14
63700;BME280;49845;47.130;142.766;2023-06-22T08:51:32;100355.69;;;17.28;75.43
63700;BME280;49845;47.130;142.766;2023-06-22T08:54:03;100364.13;;;17.15;75.55
63700;BME280;49845;47.130;142.766;2023-06-22T08:56:33;100361.03;;;17.04;76.30
63700;BME280;49845;47.130;142.766;2023-06-22T08:59:04;100367.25;;;17.03;76.81
63700;BME280;49845;47.130;142.766;2023-06-22T09:01:36;100377.03;;;17.01;76.65
63700;BME280;49845;47.130;142.766;2023-06-22T09:04:18;100368.06;;;17.05;76.85
63700;BME280;49845;47.130;142.766;2023-06-22T09:06:53;100369.91;;;17.03;77.21
63700;BME280;49845;47.130;142.766;2023-06-22T09:09:25;100368.78;;;16.87;77.46
63700;BME280;49845;47.130;142.766;2023-06-22T09:11:56;100368.22;;;16.80;77.49
63700;BME280;49845;47.130;142.766;2023-06-22T09:14:26;100369.66;;;16.65;78.20
63700;BME280;49845;47.130;142.766;2023-06-22T09:16:58;100380.44;;;16.59;78.83
63700;BME280;49845;47.130;142.766;2023-06-22T09:19:30;100381.97;;;16.43;79.53
63700;BME280;49845;47.130;142.766;2023-06-22T09:22:06;100381.97;;;16.43;80.11
63700;BME280;49845;47.130;142.766;2023-06-22T09:24:37;100387.78;;;16.51;80.40
63700;BME280;49845;47.130;142.766;2023-06-22T09:27:09;100388.38;;;16.35;80.56
63700;BME280;49845;47.130;142.766;2023-06-22T09:29:41;100392.28;;;16.25;81.18
63700;BME280;49845;47.130;142.766;2023-06-22T09:32:12;100388.16;;;16.18;81.69
63700;BME280;49845;47.130;142.766;2023-06-22T09:34:45;100322.44;;;15.65;82.20
63700;BME280;49845;47.130;142.766;2023-06-22T09:37:20;100386.03;;;15.81;82.54
63700;BME280;49845;47.130;142.766;2023-06-22T09:39:53;100387.38;;;15.66;83.73
63700;BME280;49845;47.130;142.766;2023-06-22T09:42:45;100394.47;;;15.64;83.95
63700;BME280;49845;47.130;142.766;2023-06-22T09:45:16;100396.31;;;15.62;84.20
63700;BME280;49845;47.130;142.766;2023-06-22T09:47:48;100396.66;;;15.52;84.33
63700;BME280;49845;47.130;142.766;2023-06-22T09:50:21;100383.91;;;15.14;84.59
63700;BME280;49845;47.130;142.766;2023-06-22T09:52:53;100398.53;;;14.96;85.78
63700;BME280;49845;47.130;142.766;2023-06-22T09:55:25;100360.41;;;14.53;86.92
63700;BME280;49845;47.130;142.766;2023-06-22T09:57:57;100394.41;;;14.60;88.17
63700;BME280;49845;47.130;142.766;2023-06-22T10:00:53;100394.72;;;14.48;88.61
63700;BME280;49845;47.130;142.766;2023-06-22T10:03:53;100391.56;;;14.37;90.17
63700;BME280;49845;47.130;142.766;2023-06-22T10:06:28;100398.22;;;14.19;90.30
63700;BME280;49845;47.130;142.766;2023-06-22T10:09:11;100399.44;;;14.07;91.31
63700;BME280;49845;47.130;142.766;2023-06-22T10:12:05;100380.84;;;13.84;92.34
63700;BME280;49845;47.130;142.766;2023-06-22T10:14:37;100398.16;;;13.91;92.55
63700;BME280;49845;47.130;142.766;2023-06-22T10:17:09;100395.13;;;13.73;93.05
63700;BME280;49845;47.130;142.766;2023-06-22T10:19:40;100399.78;;;13.62;93.56
63700;BME280;49845;47.130;142.766;2023-06-22T10:22:13;100401.78;;;13.54;94.18
63700;BME280;49845;47.130;142.766;2023-06-22T10:24:45;100411.63;;;13.46;94.38
63700;BME280;49845;47.130;142.766;2023-06-22T10:27:17;100409.34;;;13.32;94.64
63700;BME280;49845;47.130;142.766;2023-06-22T10:29:49;100408.91;;;13.13;95.22
63700;BME280;49845;47.130;142.766;2023-06-22T10:32:20;100405.75;;;12.99;95.53
63700;BME280;49845;47.130;142.766;2023-06-22T10:34:52;100418.13;;;12.93;96.77
63700;BME280;49845;47.130;142.766;2023-06-22T10:37:28;100425.34;;;12.82;96.94
63700;BME280;49845;47.130;142.766;2023-06-22T10:40:01;100421.31;;;12.67;97.30
63700;BME280;49845;47.130;142.766;2023-06-22T10:42:33;100438.91;;;12.64;98.41
63700;BME280;49845;47.130;142.766;2023-06-22T10:45:06;100439.78;;;12.63;98.90
63700;BME280;49845;47.130;142.766;2023-06-22T10:47:38;100443.41;;;12.57;98.72
63700;BME280;49845;47.130;142.766;2023-06-22T10:50:11;100433.25;;;12.40;99.29
63700;BME280;49845;47.130;142.766;2023-06-22T10:52:45;100444.56;;;12.44;100.00
63700;BME280;49845;47.130;142.766;2023-06-22T10:55:17;100450.81;;;12.38;100.00
63700;BME280;49845;47.130;142.766;2023-06-22T10:57:49;100450.84;;;12.35;100.00
63700;BME280;49845;47.130;142.766;2023-06-22T11:00:21;100450.97;;;12.29;100.00
63700;BME280;49845;47.130;142.766;2023-06-22T11:02:54;100454.72;;;12.17;100.00
63700;BME280;49845;47.130;142.766;2023-06-22T11:05:28;100452.31;;;12.06;100.00
63700;BME280;49845;47.130;142.766;2023-06-22T11:08:04;100461.19;;;11.98;100.00
63700;BME280;49845;47.130;142.766;2023-06-22T11:10:36;100463.16;;;11.86;100.00
63700;BME280;49845;47.130;142.766;2023-06-22T11:13:07;100451.97;;;11.77;100.00
63700;BME280;49845;47.130;142.766;2023-06-22T11:15:39;100457.31;;;11.71;100.00
63700;BME280;49845;47.130;142.766;2023-06-22T11:18:11;100455.63;;;11.66;100.00
63700;BME280;49845;47.130;142.766;2023-06-22T11:20:43;100455.78;;;11.57;100.00
63700;BME280;49845;47.130;142.766;2023-06-22T11:23:16;100468.13;;;11.51;100.00
63700;BME280;49845;47.130;142.766;2023-06-22T11:25:48;100419.69;;;11.27;100.00
63700;BME280;49845;47.130;142.766;2023-06-22T11:28:19;100457.69;;;11.49;100.00
63700;BME280;49845;47.130;142.766;2023-06-22T11:30:51;100463.63;;;11.59;100.00
63700;BME280;49845;47.130;142.766;2023-06-22T11:33:53;100461.88;;;11.58;100.00
63700;BME280;49845;47.130;142.766;2023-06-22T11:36:25;100463.78;;;11.48;100.00
63700;BME280;49845;47.130;142.766;2023-06-22T11:39:00;100464.69;;;11.47;100.00
63700;BME280;49845;47.130;142.766;2023-06-22T11:41:31;100478.63;;;11.49;100.00
63700;BME280;49845;47.130;142.766;2023-06-22T11:44:02;100470.03;;;11.41;100.00
63700;BME280;49845;47.130;142.766;2023-06-22T11:46:37;100477.09;;;11.36;100.00
63700;BME280;49845;47.130;142.766;2023-06-22T11:49:09;100478.81;;;11.37;100.00
63700;BME280;49845;47.130;142.766;2023-06-22T11:51:41;100475.41;;;11.30;100.00
63700;BME280;49845;47.130;142.766;2023-06-22T11:54:15;100467.69;;;11.22;100.00
63700;BME280;49845;47.130;142.766;2023-06-22T11:56:46;100471.34;;;11.12;100.00
63700;BME280;49845;47.130;142.766;2023-06-22T11:59:23;100475.78;;;11.06;100.00
63700;BME280;49845;47.130;142.766;2023-06-22T12:02:12;100480.97;;;11.10;100.00
63700;BME280;49845;47.130;142.766;2023-06-22T12:04:56;100475.78;;;11.07;100.00
63700;BME280;49845;47.130;142.766;2023-06-22T12:07:27;100468.03;;;11.01;100.00
63700;BME280;49845;47.130;142.766;2023-06-22T12:10:02;100473.34;;;10.95;100.00
63700;BME280;49845;47.130;142.766;2023-06-22T12:12:33;100484.47;;;11.09;100.00
63700;BME280;49845;47.130;142.766;2023-06-22T12:15:09;100443.06;;;10.82;100.00
63700;BME280;49845;47.130;142.766;2023-06-22T12:17:41;100488.78;;;11.12;100.00
63700;BME280;49845;47.130;142.766;2023-06-22T12:20:13;100484.41;;;11.12;100.00
63700;BME280;49845;47.130;142.766;2023-06-22T12:22:45;100477.72;;;10.96;100.00
63700;BME280;49845;47.130;142.766;2023-06-22T12:25:18;100475.88;;;11.01;100.00
63700;BME280;49845;47.130;142.766;2023-06-22T12:27:48;100474.31;;;10.88;100.00
63700;BME280;49845;47.130;142.766;2023-06-22T12:30:19;100484.72;;;10.94;100.00
63700;BME280;49845;47.130;142.766;2023-06-22T12:32:50;100477.84;;;10.87;100.00
63700;BME280;49845;47.130;142.766;2023-06-22T12:35:23;100491.66;;;10.95;100.00
63700;BME280;49845;47.130;142.766;2023-06-22T12:37:54;100493.47;;;10.90;100.00
63700;BME280;49845;47.130;142.766;2023-06-22T12:40:27;100491.81;;;10.83;100.00
63700;BME280;49845;47.130;142.766;2023-06-22T12:42:59;100494.53;;;10.76;100.00
63700;BME280;49845;47.130;142.766;2023-06-22T12:45:46;100490.28;;;10.69;100.00
63700;BME280;49845;47.130;142.766;2023-06-22T12:48:34;100485.09;;;10.63;100.00
63700;BME280;49845;47.130;142.766;2023-06-22T12:51:19;100488.53;;;10.68;100.00
63700;BME280;49845;47.130;142.766;2023-06-22T12:53:53;100492.72;;;10.80;100.00